sensor_id;sensor_type;location;lat;lon;timestamp;P1;durP1;ratioP1;P2;durP2;ratioP2
10715;SDS011;5409;42.620;23.316;2023-04-25T00:00:54;6.10;;;5.50;;
10715;SDS011;5409;42.620;23.316;2023-04-25T00:03:21;5.22;;;4.72;;
10715;SDS011;5409;42.620;23.316;2023-04-25T00:05:50;6.47;;;4.25;;
10715;SDS011;5409;42.620;23.316;2023-04-25T00:08:17;4.50;;;4.07;;
10715;SDS011;5409;42.620;23.316;2023-04-25T00:10:45;3.67;;;3.38;;
10715;SDS011;5409;42.620;23.316;2023-04-25T00:13:11;2.60;;;2.40;;
10715;SDS011;5409;42.620;23.316;2023-04-25T00:15:38;2.00;;;1.85;;
10715;SDS011;5409;42.620;23.316;2023-04-25T00:18:06;2.08;;;1.88;;
10715;SDS011;5409;42.620;23.316;2023-04-25T00:20:34;2.20;;;1.75;;
10715;SDS011;5409;42.620;23.316;2023-04-25T00:23:01;1.50;;;1.40;;
10715;SDS011;5409;42.620;23.316;2023-04-25T00:25:28;1.63;;;1.08;;
10715;SDS011;5409;42.620;23.316;2023-04-25T00:27:56;0.90;;;0.90;;
10715;SDS011;5409;42.620;23.316;2023-04-25T00:30:23;1.45;;;1.25;;
10715;SDS011;5409;42.620;23.316;2023-04-25T00:32:50;1.08;;;0.95;;
10715;SDS011;5409;42.620;23.316;2023-04-25T00:35:16;1.42;;;1.33;;
10715;SDS011;5409;42.620;23.316;2023-04-25T00:37:43;1.92;;;1.30;;
10715;SDS011;5409;42.620;23.316;2023-04-25T00:40:10;1.40;;;1.30;;
10715;SDS011;5409;42.620;23.316;2023-04-25T00:42:37;1.63;;;1.52;;
10715;SDS011;5409;42.620;23.316;2023-04-25T00:45:06;1.50;;;1.40;;
10715;SDS011;5409;42.620;23.316;2023-04-25T00:47:38;1.73;;;1.30;;
10715;SDS011;5409;42.620;23.316;2023-04-25T00:50:07;1.58;;;1.48;;
10715;SDS011;5409;42.620;23.316;2023-04-25T00:52:34;2.10;;;1.90;;
10715;SDS011;5409;42.620;23.316;2023-04-25T00:55:02;3.20;;;2.42;;
10715;SDS011;5409;42.620;23.316;2023-04-25T00:57:29;3.15;;;2.85;;
10715;SDS011;5409;42.620;23.316;2023-04-25T00:59:55;3.03;;;2.33;;
10715;SDS011;5409;42.620;23.316;2023-04-25T01:02:24;2.53;;;1.95;;
10715;SDS011;5409;42.620;23.316;2023-04-25T01:04:52;2.70;;;2.50;;
10715;SDS011;5409;42.620;23.316;2023-04-25T01:07:19;3.25;;;2.40;;
10715;SDS011;5409;42.620;23.316;2023-04-25T01:09:46;3.60;;;2.80;;
10715;SDS011;5409;42.620;23.316;2023-04-25T01:12:12;4.25;;;3.65;;
10715;SDS011;5409;42.620;23.316;2023-04-25T01:14:39;4.90;;;3.25;;
10715;SDS011;5409;42.620;23.316;2023-04-25T01:17:06;3.40;;;3.10;;
10715;SDS011;5409;42.620;23.316;2023-04-25T01:19:35;3.33;;;3.03;;
10715;SDS011;5409;42.620;23.316;2023-04-25T01:22:03;5.55;;;3.03;;
10715;SDS011;5409;42.620;23.316;2023-04-25T01:24:30;5.35;;;3.25;;
10715;SDS011;5409;42.620;23.316;2023-04-25T01:26:58;3.83;;;2.58;;
10715;SDS011;5409;42.620;23.316;2023-04-25T01:29:26;2.85;;;2.55;;
10715;SDS011;5409;42.620;23.316;2023-04-25T01:31:53;3.20;;;2.80;;
10715;SDS011;5409;42.620;23.316;2023-04-25T01:34:20;2.90;;;2.70;;
10715;SDS011;5409;42.620;23.316;2023-04-25T01:36:48;3.28;;;2.97;;
10715;SDS011;5409;42.620;23.316;2023-04-25T01:39:17;2.63;;;2.42;;
10715;SDS011;5409;42.620;23.316;2023-04-25T01:41:44;3.85;;;2.42;;
10715;SDS011;5409;42.620;23.316;2023-04-25T01:44:12;4.97;;;3.08;;
10715;SDS011;5409;42.620;23.316;2023-04-25T01:46:38;4.93;;;4.05;;
10715;SDS011;5409;42.620;23.316;2023-04-25T01:49:05;4.70;;;4.15;;
10715;SDS011;5409;42.620;23.316;2023-04-25T01:51:32;8.05;;;5.90;;
10715;SDS011;5409;42.620;23.316;2023-04-25T01:54:00;10.82;;;8.32;;
10715;SDS011;5409;42.620;23.316;2023-04-25T01:56:31;11.02;;;8.77;;
10715;SDS011;5409;42.620;23.316;2023-04-25T01:58:58;8.43;;;7.40;;
10715;SDS011;5409;42.620;23.316;2023-04-25T02:01:25;13.30;;;10.15;;
10715;SDS011;5409;42.620;23.316;2023-04-25T02:03:51;9.48;;;8.20;;
10715;SDS011;5409;42.620;23.316;2023-04-25T02:06:18;10.07;;;8.65;;
10715;SDS011;5409;42.620;23.316;2023-04-25T02:08:45;11.48;;;9.35;;
10715;SDS011;5409;42.620;23.316;2023-04-25T02:11:12;12.70;;;9.13;;
10715;SDS011;5409;42.620;23.316;2023-04-25T02:13:40;11.52;;;8.50;;
10715;SDS011;5409;42.620;23.316;2023-04-25T02:16:06;11.65;;;9.38;;
10715;SDS011;5409;42.620;23.316;2023-04-25T02:18:33;10.65;;;7.97;;
10715;SDS011;5409;42.620;23.316;2023-04-25T02:21:02;10.13;;;6.88;;
10715;SDS011;5409;42.620;23.316;2023-04-25T02:23:29;8.50;;;7.13;;
10715;SDS011;5409;42.620;23.316;2023-04-25T02:25:56;11.38;;;6.97;;
10715;SDS011;5409;42.620;23.316;2023-04-25T02:28:23;9.07;;;5.70;;
10715;SDS011;5409;42.620;23.316;2023-04-25T02:30:52;8.43;;;6.07;;
10715;SDS011;5409;42.620;23.316;2023-04-25T02:33:18;6.55;;;5.20;;
10715;SDS011;5409;42.620;23.316;2023-04-25T02:35:46;5.55;;;5.03;;
10715;SDS011;5409;42.620;23.316;2023-04-25T02:38:12;7.18;;;5.20;;
10715;SDS011;5409;42.620;23.316;2023-04-25T02:40:39;8.07;;;4.90;;
10715;SDS011;5409;42.620;23.316;2023-04-25T02:43:06;7.20;;;5.40;;
10715;SDS011;5409;42.620;23.316;2023-04-25T02:45:33;8.70;;;5.85;;
10715;SDS011;5409;42.620;23.316;2023-04-25T02:48:02;7.47;;;6.38;;
10715;SDS011;5409;42.620;23.316;2023-04-25T02:50:29;7.93;;;6.68;;
10715;SDS011;5409;42.620;23.316;2023-04-25T02:52:56;7.57;;;6.35;;
10715;SDS011;5409;42.620;23.316;2023-04-25T02:55:23;9.23;;;6.75;;
10715;SDS011;5409;42.620;23.316;2023-04-25T02:57:49;8.57;;;6.65;;
10715;SDS011;5409;42.620;23.316;2023-04-25T03:00:16;7.65;;;5.70;;
10715;SDS011;5409;42.620;23.316;2023-04-25T03:02:43;8.07;;;6.65;;
10715;SDS011;5409;42.620;23.316;2023-04-25T03:05:11;12.10;;;8.55;;
10715;SDS011;5409;42.620;23.316;2023-04-25T03:07:38;11.02;;;9.32;;
10715;SDS011;5409;42.620;23.316;2023-04-25T03:10:05;10.55;;;8.88;;
10715;SDS011;5409;42.620;23.316;2023-04-25T03:12:33;10.65;;;8.80;;
10715;SDS011;5409;42.620;23.316;2023-04-25T03:14:59;11.25;;;8.70;;
10715;SDS011;5409;42.620;23.316;2023-04-25T03:17:26;9.80;;;8.80;;
10715;SDS011;5409;42.620;23.316;2023-04-25T03:19:53;10.63;;;8.27;;
10715;SDS011;5409;42.620;23.316;2023-04-25T03:22:21;10.32;;;7.53;;
10715;SDS011;5409;42.620;23.316;2023-04-25T03:24:49;7.20;;;6.50;;
10715;SDS011;5409;42.620;23.316;2023-04-25T03:27:16;8.18;;;7.38;;
10715;SDS011;5409;42.620;23.316;2023-04-25T03:29:42;6.80;;;6.20;;
10715;SDS011;5409;42.620;23.316;2023-04-25T03:32:09;6.95;;;6.30;;
10715;SDS011;5409;42.620;23.316;2023-04-25T03:34:36;5.75;;;5.25;;
10715;SDS011;5409;42.620;23.316;2023-04-25T03:37:02;6.07;;;4.63;;
10715;SDS011;5409;42.620;23.316;2023-04-25T03:39:31;5.45;;;4.70;;
10715;SDS011;5409;42.620;23.316;2023-04-25T03:41:57;5.07;;;4.68;;
10715;SDS011;5409;42.620;23.316;2023-04-25T03:44:24;6.95;;;6.30;;
10715;SDS011;5409;42.620;23.316;2023-04-25T03:46:51;6.10;;;5.57;;
10715;SDS011;5409;42.620;23.316;2023-04-25T03:49:17;6.90;;;6.30;;
10715;SDS011;5409;42.620;23.316;2023-04-25T03:51:44;5.78;;;5.25;;
10715;SDS011;5409;42.620;23.316;2023-04-25T03:54:11;6.00;;;5.40;;
10715;SDS011;5409;42.620;23.316;2023-04-25T03:56:39;5.70;;;4.70;;
10715;SDS011;5409;42.620;23.316;2023-04-25T03:59:05;5.20;;;4.60;;
10715;SDS011;5409;42.620;23.316;2023-04-25T04:01:32;4.60;;;4.22;;
10715;SDS011;5409;42.620;23.316;2023-04-25T04:04:00;4.32;;;3.92;;
10715;SDS011;5409;42.620;23.316;2023-04-25T04:06:27;4.47;;;4.07;;
10715;SDS011;5409;42.620;23.316;2023-04-25T04:08:53;3.50;;;3.20;;
10715;SDS011;5409;42.620;23.316;2023-04-25T04:11:20;4.32;;;3.92;;
10715;SDS011;5409;42.620;23.316;2023-04-25T04:13:48;2.75;;;2.55;;
10715;SDS011;5409;42.620;23.316;2023-04-25T04:16:15;2.70;;;2.35;;
10715;SDS011;5409;42.620;23.316;2023-04-25T04:18:42;3.08;;;2.20;;
10715;SDS011;5409;42.620;23.316;2023-04-25T04:21:08;2.00;;;1.90;;
10715;SDS011;5409;42.620;23.316;2023-04-25T04:23:35;2.05;;;1.88;;
10715;SDS011;5409;42.620;23.316;2023-04-25T04:26:02;2.00;;;1.90;;
10715;SDS011;5409;42.620;23.316;2023-04-25T04:28:29;1.50;;;1.40;;
10715;SDS011;5409;42.620;23.316;2023-04-25T04:30:57;2.10;;;1.67;;
10715;SDS011;5409;42.620;23.316;2023-04-25T04:33:24;2.40;;;2.15;;
10715;SDS011;5409;42.620;23.316;2023-04-25T04:35:50;2.40;;;2.20;;
10715;SDS011;5409;42.620;23.316;2023-04-25T04:38:18;5.32;;;4.70;;
10715;SDS011;5409;42.620;23.316;2023-04-25T04:40:46;10.57;;;7.82;;
10715;SDS011;5409;42.620;23.316;2023-04-25T04:43:13;9.98;;;8.43;;
10715;SDS011;5409;42.620;23.316;2023-04-25T04:45:42;10.63;;;9.55;;
10715;SDS011;5409;42.620;23.316;2023-04-25T04:48:10;14.23;;;9.95;;
10715;SDS011;5409;42.620;23.316;2023-04-25T04:50:39;10.88;;;9.20;;
10715;SDS011;5409;42.620;23.316;2023-04-25T04:53:06;8.27;;;7.47;;
10715;SDS011;5409;42.620;23.316;2023-04-25T04:55:33;5.00;;;3.20;;
10715;SDS011;5409;42.620;23.316;2023-04-25T04:58:00;2.83;;;2.50;;
10715;SDS011;5409;42.620;23.316;2023-04-25T05:00:26;2.15;;;1.95;;
10715;SDS011;5409;42.620;23.316;2023-04-25T05:02:54;2.53;;;2.33;;
10715;SDS011;5409;42.620;23.316;2023-04-25T05:05:22;1.50;;;1.40;;
10715;SDS011;5409;42.620;23.316;2023-04-25T05:07:49;2.33;;;1.60;;
10715;SDS011;5409;42.620;23.316;2023-04-25T05:10:16;2.00;;;1.90;;
10715;SDS011;5409;42.620;23.316;2023-04-25T05:12:43;1.92;;;1.73;;
10715;SDS011;5409;42.620;23.316;2023-04-25T05:15:10;1.80;;;1.70;;
10715;SDS011;5409;42.620;23.316;2023-04-25T05:17:37;2.10;;;1.95;;
10715;SDS011;5409;42.620;23.316;2023-04-25T05:20:04;3.33;;;2.38;;
10715;SDS011;5409;42.620;23.316;2023-04-25T05:22:33;3.40;;;3.10;;
10715;SDS011;5409;42.620;23.316;2023-04-25T05:25:00;5.93;;;3.00;;
10715;SDS011;5409;42.620;23.316;2023-04-25T05:27:27;3.83;;;3.42;;
10715;SDS011;5409;42.620;23.316;2023-04-25T05:29:54;6.30;;;5.70;;
10715;SDS011;5409;42.620;23.316;2023-04-25T05:32:20;14.20;;;12.32;;
10715;SDS011;5409;42.620;23.316;2023-04-25T05:34:47;15.52;;;12.45;;
10715;SDS011;5409;42.620;23.316;2023-04-25T05:37:14;14.95;;;13.20;;
10715;SDS011;5409;42.620;23.316;2023-04-25T05:39:42;16.33;;;14.57;;
10715;SDS011;5409;42.620;23.316;2023-04-25T05:42:09;15.52;;;13.18;;
10715;SDS011;5409;42.620;23.316;2023-04-25T05:44:35;16.35;;;13.35;;
10715;SDS011;5409;42.620;23.316;2023-04-25T05:47:02;13.25;;;10.43;;
10715;SDS011;5409;42.620;23.316;2023-04-25T05:49:30;11.13;;;9.75;;
10715;SDS011;5409;42.620;23.316;2023-04-25T05:51:56;11.50;;;10.30;;
10715;SDS011;5409;42.620;23.316;2023-04-25T05:54:23;12.43;;;10.55;;
10715;SDS011;5409;42.620;23.316;2023-04-25T05:56:51;13.48;;;11.75;;
10715;SDS011;5409;42.620;23.316;2023-04-25T05:59:18;15.38;;;13.38;;
10715;SDS011;5409;42.620;23.316;2023-04-25T06:01:45;14.27;;;12.10;;
10715;SDS011;5409;42.620;23.316;2023-04-25T06:04:11;14.43;;;11.50;;
10715;SDS011;5409;42.620;23.316;2023-04-25T06:06:38;14.25;;;12.35;;
10715;SDS011;5409;42.620;23.316;2023-04-25T06:09:05;12.55;;;11.18;;
10715;SDS011;5409;42.620;23.316;2023-04-25T06:11:31;14.05;;;11.93;;
10715;SDS011;5409;42.620;23.316;2023-04-25T06:14:00;16.60;;;13.00;;
10715;SDS011;5409;42.620;23.316;2023-04-25T06:16:26;14.93;;;12.32;;
10715;SDS011;5409;42.620;23.316;2023-04-25T06:18:53;15.55;;;12.95;;
10715;SDS011;5409;42.620;23.316;2023-04-25T06:21:20;14.48;;;12.45;;
10715;SDS011;5409;42.620;23.316;2023-04-25T06:23:46;13.90;;;12.43;;
10715;SDS011;5409;42.620;23.316;2023-04-25T06:26:13;13.63;;;12.23;;
10715;SDS011;5409;42.620;23.316;2023-04-25T06:28:40;15.93;;;13.27;;
10715;SDS011;5409;42.620;23.316;2023-04-25T06:31:08;16.73;;;14.60;;
10715;SDS011;5409;42.620;23.316;2023-04-25T06:33:35;19.20;;;15.88;;
10715;SDS011;5409;42.620;23.316;2023-04-25T06:36:01;20.15;;;17.85;;
10715;SDS011;5409;42.620;23.316;2023-04-25T06:38:28;23.38;;;19.23;;
10715;SDS011;5409;42.620;23.316;2023-04-25T06:40:56;25.92;;;21.55;;
10715;SDS011;5409;42.620;23.316;2023-04-25T06:43:22;23.98;;;20.33;;
10715;SDS011;5409;42.620;23.316;2023-04-25T06:45:49;23.02;;;19.48;;
10715;SDS011;5409;42.620;23.316;2023-04-25T06:48:18;21.67;;;17.60;;
10715;SDS011;5409;42.620;23.316;2023-04-25T06:50:45;19.88;;;17.02;;
10715;SDS011;5409;42.620;23.316;2023-04-25T06:53:11;19.10;;;16.27;;
10715;SDS011;5409;42.620;23.316;2023-04-25T06:55:38;15.63;;;14.02;;
10715;SDS011;5409;42.620;23.316;2023-04-25T06:58:05;15.30;;;13.68;;
10715;SDS011;5409;42.620;23.316;2023-04-25T07:00:32;13.95;;;12.55;;
10715;SDS011;5409;42.620;23.316;2023-04-25T07:02:59;13.60;;;12.20;;
10715;SDS011;5409;42.620;23.316;2023-04-25T07:05:27;10.55;;;9.52;;
10715;SDS011;5409;42.620;23.316;2023-04-25T07:07:54;9.00;;;8.10;;
10715;SDS011;5409;42.620;23.316;2023-04-25T07:10:20;7.68;;;6.35;;
10715;SDS011;5409;42.620;23.316;2023-04-25T07:12:47;6.88;;;5.85;;
10715;SDS011;5409;42.620;23.316;2023-04-25T07:15:14;6.38;;;5.78;;
10715;SDS011;5409;42.620;23.316;2023-04-25T07:17:41;6.97;;;5.80;;
10715;SDS011;5409;42.620;23.316;2023-04-25T07:20:08;7.65;;;6.47;;
10715;SDS011;5409;42.620;23.316;2023-04-25T07:22:37;8.57;;;7.03;;
10715;SDS011;5409;42.620;23.316;2023-04-25T07:25:04;9.32;;;7.53;;
10715;SDS011;5409;42.620;23.316;2023-04-25T07:27:31;10.82;;;8.18;;
10715;SDS011;5409;42.620;23.316;2023-04-25T07:29:58;11.80;;;9.60;;
10715;SDS011;5409;42.620;23.316;2023-04-25T07:32:25;11.75;;;9.55;;
10715;SDS011;5409;42.620;23.316;2023-04-25T07:34:52;11.43;;;9.32;;
10715;SDS011;5409;42.620;23.316;2023-04-25T07:37:18;11.70;;;8.90;;
10715;SDS011;5409;42.620;23.316;2023-04-25T07:39:47;13.23;;;8.73;;
10715;SDS011;5409;42.620;23.316;2023-04-25T07:42:13;12.10;;;8.02;;
10715;SDS011;5409;42.620;23.316;2023-04-25T07:44:40;13.13;;;8.85;;
10715;SDS011;5409;42.620;23.316;2023-04-25T07:47:07;9.20;;;8.23;;
10715;SDS011;5409;42.620;23.316;2023-04-25T07:49:35;14.88;;;9.57;;
10715;SDS011;5409;42.620;23.316;2023-04-25T07:52:02;11.20;;;9.40;;
10715;SDS011;5409;42.620;23.316;2023-04-25T07:54:31;10.10;;;8.18;;
10715;SDS011;5409;42.620;23.316;2023-04-25T07:56:59;10.38;;;8.55;;
10715;SDS011;5409;42.620;23.316;2023-04-25T07:59:25;12.70;;;8.38;;
10715;SDS011;5409;42.620;23.316;2023-04-25T08:01:52;13.43;;;8.18;;
10715;SDS011;5409;42.620;23.316;2023-04-25T08:04:19;10.23;;;8.20;;
10715;SDS011;5409;42.620;23.316;2023-04-25T08:06:46;12.85;;;8.75;;
10715;SDS011;5409;42.620;23.316;2023-04-25T08:09:12;9.32;;;8.27;;
10715;SDS011;5409;42.620;23.316;2023-04-25T08:11:40;13.55;;;8.70;;
10715;SDS011;5409;42.620;23.316;2023-04-25T08:14:09;11.40;;;8.25;;
10715;SDS011;5409;42.620;23.316;2023-04-25T08:16:36;9.55;;;7.82;;
10715;SDS011;5409;42.620;23.316;2023-04-25T08:19:03;10.43;;;7.57;;
10715;SDS011;5409;42.620;23.316;2023-04-25T08:21:30;9.15;;;6.32;;
10715;SDS011;5409;42.620;23.316;2023-04-25T08:23:57;11.32;;;6.40;;
10715;SDS011;5409;42.620;23.316;2023-04-25T08:26:24;8.60;;;5.95;;
10715;SDS011;5409;42.620;23.316;2023-04-25T08:28:51;7.75;;;5.78;;
10715;SDS011;5409;42.620;23.316;2023-04-25T08:31:19;11.00;;;5.00;;
10715;SDS011;5409;42.620;23.316;2023-04-25T08:33:46;4.68;;;4.20;;
10715;SDS011;5409;42.620;23.316;2023-04-25T08:36:14;4.47;;;4.00;;
10715;SDS011;5409;42.620;23.316;2023-04-25T08:38:41;6.25;;;3.40;;
10715;SDS011;5409;42.620;23.316;2023-04-25T08:41:08;3.40;;;3.10;;
10715;SDS011;5409;42.620;23.316;2023-04-25T08:43:37;2.95;;;2.42;;
10715;SDS011;5409;42.620;23.316;2023-04-25T08:46:04;6.32;;;2.78;;
10715;SDS011;5409;42.620;23.316;2023-04-25T08:48:33;4.90;;;2.75;;
10715;SDS011;5409;42.620;23.316;2023-04-25T08:51:01;7.28;;;3.65;;
10715;SDS011;5409;42.620;23.316;2023-04-25T08:53:29;6.05;;;3.30;;
10715;SDS011;5409;42.620;23.316;2023-04-25T08:55:58;4.75;;;2.75;;
10715;SDS011;5409;42.620;23.316;2023-04-25T08:58:27;3.33;;;2.60;;
10715;SDS011;5409;42.620;23.316;2023-04-25T09:00:54;3.65;;;2.00;;
10715;SDS011;5409;42.620;23.316;2023-04-25T09:03:21;3.03;;;2.17;;
10715;SDS011;5409;42.620;23.316;2023-04-25T09:05:49;4.25;;;2.85;;
10715;SDS011;5409;42.620;23.316;2023-04-25T09:08:17;6.80;;;2.45;;
10715;SDS011;5409;42.620;23.316;2023-04-25T09:10:44;2.50;;;2.30;;
10715;SDS011;5409;42.620;23.316;2023-04-25T09:13:12;2.97;;;2.13;;
10715;SDS011;5409;42.620;23.316;2023-04-25T09:15:47;5.75;;;4.80;;
10715;SDS011;5409;42.620;23.316;2023-04-25T09:18:21;6.35;;;4.57;;
10715;SDS011;5409;42.620;23.316;2023-04-25T09:20:51;4.57;;;3.95;;
10715;SDS011;5409;42.620;23.316;2023-04-25T09:23:19;3.50;;;3.10;;
10715;SDS011;5409;42.620;23.316;2023-04-25T09:25:47;7.75;;;3.38;;
10715;SDS011;5409;42.620;23.316;2023-04-25T09:28:14;5.35;;;3.65;;
10715;SDS011;5409;42.620;23.316;2023-04-25T09:30:41;5.78;;;3.42;;
10715;SDS011;5409;42.620;23.316;2023-04-25T09:33:09;3.83;;;3.33;;
10715;SDS011;5409;42.620;23.316;2023-04-25T09:35:37;4.68;;;4.00;;
10715;SDS011;5409;42.620;23.316;2023-04-25T09:38:10;5.63;;;3.83;;
10715;SDS011;5409;42.620;23.316;2023-04-25T09:40:39;6.38;;;4.63;;
10715;SDS011;5409;42.620;23.316;2023-04-25T09:43:08;6.18;;;4.95;;
10715;SDS011;5409;42.620;23.316;2023-04-25T09:45:40;6.25;;;5.05;;
10715;SDS011;5409;42.620;23.316;2023-04-25T09:48:11;10.57;;;5.35;;
10715;SDS011;5409;42.620;23.316;2023-04-25T09:50:38;3.42;;;3.13;;
10715;SDS011;5409;42.620;23.316;2023-04-25T09:53:05;4.72;;;1.80;;
10715;SDS011;5409;42.620;23.316;2023-04-25T09:55:34;2.35;;;2.13;;
10715;SDS011;5409;42.620;23.316;2023-04-25T09:58:03;3.47;;;2.50;;
10715;SDS011;5409;42.620;23.316;2023-04-25T10:00:32;4.20;;;2.75;;
10715;SDS011;5409;42.620;23.316;2023-04-25T10:03:00;3.95;;;2.53;;
10715;SDS011;5409;42.620;23.316;2023-04-25T10:05:30;3.15;;;2.72;;
10715;SDS011;5409;42.620;23.316;2023-04-25T10:08:02;3.22;;;2.40;;
10715;SDS011;5409;42.620;23.316;2023-04-25T10:10:29;3.22;;;2.10;;
10715;SDS011;5409;42.620;23.316;2023-04-25T10:13:03;2.03;;;1.23;;
10715;SDS011;5409;42.620;23.316;2023-04-25T10:15:31;1.65;;;1.13;;
10715;SDS011;5409;42.620;23.316;2023-04-25T10:18:00;4.47;;;1.10;;
10715;SDS011;5409;42.620;23.316;2023-04-25T10:20:27;1.50;;;0.85;;
10715;SDS011;5409;42.620;23.316;2023-04-25T10:22:55;2.50;;;1.20;;
10715;SDS011;5409;42.620;23.316;2023-04-25T10:25:24;1.42;;;0.90;;
10715;SDS011;5409;42.620;23.316;2023-04-25T10:27:52;0.85;;;0.82;;
10715;SDS011;5409;42.620;23.316;2023-04-25T10:30:21;0.65;;;0.65;;
10715;SDS011;5409;42.620;23.316;2023-04-25T10:32:47;1.05;;;0.52;;
10715;SDS011;5409;42.620;23.316;2023-04-25T10:35:16;0.70;;;0.70;;
10715;SDS011;5409;42.620;23.316;2023-04-25T10:40:30;0.70;;;0.70;;
10715;SDS011;5409;42.620;23.316;2023-04-25T10:46:00;0.90;;;0.75;;
10715;SDS011;5409;42.620;23.316;2023-04-25T10:48:27;2.10;;;0.60;;
10715;SDS011;5409;42.620;23.316;2023-04-25T10:51:06;0.80;;;0.80;;
10715;SDS011;5409;42.620;23.316;2023-04-25T10:53:33;4.60;;;0.60;;
10715;SDS011;5409;42.620;23.316;2023-04-25T10:56:00;0.80;;;0.60;;
10715;SDS011;5409;42.620;23.316;2023-04-25T10:58:27;1.85;;;0.73;;
10715;SDS011;5409;42.620;23.316;2023-04-25T11:00:53;1.35;;;1.02;;
10715;SDS011;5409;42.620;23.316;2023-04-25T11:03:23;1.13;;;1.02;;
10715;SDS011;5409;42.620;23.316;2023-04-25T11:05:50;0.90;;;0.90;;
10715;SDS011;5409;42.620;23.316;2023-04-25T11:08:19;0.90;;;0.90;;
10715;SDS011;5409;42.620;23.316;2023-04-25T11:10:59;1.10;;;1.00;;
10715;SDS011;5409;42.620;23.316;2023-04-25T11:13:28;0.80;;;0.80;;
10715;SDS011;5409;42.620;23.316;2023-04-25T11:15:55;1.27;;;0.60;;
10715;SDS011;5409;42.620;23.316;2023-04-25T11:18:27;0.60;;;0.60;;
10715;SDS011;5409;42.620;23.316;2023-04-25T11:20:53;0.60;;;0.60;;
10715;SDS011;5409;42.620;23.316;2023-04-25T11:23:21;0.60;;;0.60;;
10715;SDS011;5409;42.620;23.316;2023-04-25T11:25:47;0.85;;;0.60;;
10715;SDS011;5409;42.620;23.316;2023-04-25T11:28:20;0.55;;;0.55;;
10715;SDS011;5409;42.620;23.316;2023-04-25T11:30:47;1.10;;;0.73;;
10715;SDS011;5409;42.620;23.316;2023-04-25T11:33:15;1.50;;;0.80;;
10715;SDS011;5409;42.620;23.316;2023-04-25T11:35:43;0.75;;;0.75;;
10715;SDS011;5409;42.620;23.316;2023-04-25T11:38:10;1.80;;;1.02;;
10715;SDS011;5409;42.620;23.316;2023-04-25T11:40:37;2.17;;;1.00;;
10715;SDS011;5409;42.620;23.316;2023-04-25T11:43:03;1.55;;;1.10;;
10715;SDS011;5409;42.620;23.316;2023-04-25T11:45:30;2.28;;;1.10;;
10715;SDS011;5409;42.620;23.316;2023-04-25T11:47:57;1.27;;;1.17;;
10715;SDS011;5409;42.620;23.316;2023-04-25T11:50:24;2.33;;;1.20;;
10715;SDS011;5409;42.620;23.316;2023-04-25T11:52:56;1.83;;;1.05;;
10715;SDS011;5409;42.620;23.316;2023-04-25T11:55:23;4.00;;;1.58;;
10715;SDS011;5409;42.620;23.316;2023-04-25T11:57:50;1.30;;;1.20;;
10715;SDS011;5409;42.620;23.316;2023-04-25T12:00:17;4.63;;;1.40;;
10715;SDS011;5409;42.620;23.316;2023-04-25T12:02:46;3.15;;;1.45;;
10715;SDS011;5409;42.620;23.316;2023-04-25T12:05:14;4.53;;;1.90;;
10715;SDS011;5409;42.620;23.316;2023-04-25T12:07:41;2.88;;;1.58;;
10715;SDS011;5409;42.620;23.316;2023-04-25T12:10:10;2.03;;;1.92;;
10715;SDS011;5409;42.620;23.316;2023-04-25T12:12:41;0.95;;;0.90;;
10715;SDS011;5409;42.620;23.316;2023-04-25T12:15:10;2.63;;;0.80;;
10715;SDS011;5409;42.620;23.316;2023-04-25T12:17:39;0.93;;;0.80;;
10715;SDS011;5409;42.620;23.316;2023-04-25T12:20:07;1.55;;;0.75;;
10715;SDS011;5409;42.620;23.316;2023-04-25T12:22:35;0.60;;;0.60;;
10715;SDS011;5409;42.620;23.316;2023-04-25T12:25:02;1.05;;;0.82;;
10715;SDS011;5409;42.620;23.316;2023-04-25T12:27:31;0.70;;;0.60;;
10715;SDS011;5409;42.620;23.316;2023-04-25T12:29:59;0.70;;;0.70;;
10715;SDS011;5409;42.620;23.316;2023-04-25T12:32:26;0.70;;;0.70;;
10715;SDS011;5409;42.620;23.316;2023-04-25T12:34:53;0.80;;;0.80;;
10715;SDS011;5409;42.620;23.316;2023-04-25T12:37:20;0.52;;;0.52;;
10715;SDS011;5409;42.620;23.316;2023-04-25T12:39:47;0.70;;;0.70;;
10715;SDS011;5409;42.620;23.316;2023-04-25T12:42:13;1.02;;;0.70;;
10715;SDS011;5409;42.620;23.316;2023-04-25T12:44:41;1.15;;;0.70;;
10715;SDS011;5409;42.620;23.316;2023-04-25T12:47:08;1.48;;;0.77;;
10715;SDS011;5409;42.620;23.316;2023-04-25T12:49:35;0.70;;;0.70;;
10715;SDS011;5409;42.620;23.316;2023-04-25T12:52:02;1.63;;;0.73;;
10715;SDS011;5409;42.620;23.316;2023-04-25T12:54:29;1.38;;;0.80;;
10715;SDS011;5409;42.620;23.316;2023-04-25T12:56:56;0.70;;;0.70;;
10715;SDS011;5409;42.620;23.316;2023-04-25T12:59:23;1.30;;;1.00;;
10715;SDS011;5409;42.620;23.316;2023-04-25T13:01:51;1.20;;;1.05;;
10715;SDS011;5409;42.620;23.316;2023-04-25T13:04:18;1.10;;;1.00;;
10715;SDS011;5409;42.620;23.316;2023-04-25T13:06:46;1.63;;;1.40;;
10715;SDS011;5409;42.620;23.316;2023-04-25T13:09:12;2.40;;;1.35;;
10715;SDS011;5409;42.620;23.316;2023-04-25T13:11:40;0.75;;;0.75;;
10715;SDS011;5409;42.620;23.316;2023-04-25T13:14:07;1.50;;;1.13;;
10715;SDS011;5409;42.620;23.316;2023-04-25T13:16:33;1.10;;;1.00;;
10715;SDS011;5409;42.620;23.316;2023-04-25T13:19:01;1.42;;;1.30;;
10715;SDS011;5409;42.620;23.316;2023-04-25T13:21:29;2.38;;;1.20;;
10715;SDS011;5409;42.620;23.316;2023-04-25T13:23:57;3.47;;;1.30;;
10715;SDS011;5409;42.620;23.316;2023-04-25T13:26:23;1.20;;;1.10;;
10715;SDS011;5409;42.620;23.316;2023-04-25T13:28:50;1.45;;;1.13;;
10715;SDS011;5409;42.620;23.316;2023-04-25T13:31:17;1.70;;;1.27;;
10715;SDS011;5409;42.620;23.316;2023-04-25T13:33:43;2.47;;;1.35;;
10715;SDS011;5409;42.620;23.316;2023-04-25T13:36:11;1.50;;;1.15;;
10715;SDS011;5409;42.620;23.316;2023-04-25T13:38:38;1.85;;;1.10;;
10715;SDS011;5409;42.620;23.316;2023-04-25T13:41:07;1.25;;;1.15;;
10715;SDS011;5409;42.620;23.316;2023-04-25T13:43:36;1.25;;;1.13;;
10715;SDS011;5409;42.620;23.316;2023-04-25T13:46:02;1.20;;;1.08;;
10715;SDS011;5409;42.620;23.316;2023-04-25T13:48:29;1.95;;;1.20;;
10715;SDS011;5409;42.620;23.316;2023-04-25T13:50:56;1.30;;;1.20;;
10715;SDS011;5409;42.620;23.316;2023-04-25T13:53:24;1.85;;;1.52;;
10715;SDS011;5409;42.620;23.316;2023-04-25T13:55:51;1.00;;;1.00;;
10715;SDS011;5409;42.620;23.316;2023-04-25T13:58:18;1.00;;;1.00;;
10715;SDS011;5409;42.620;23.316;2023-04-25T14:00:45;1.20;;;1.10;;
10715;SDS011;5409;42.620;23.316;2023-04-25T14:03:12;1.95;;;1.15;;
10715;SDS011;5409;42.620;23.316;2023-04-25T14:05:39;0.60;;;0.60;;
10715;SDS011;5409;42.620;23.316;2023-04-25T14:08:06;1.00;;;0.90;;
10715;SDS011;5409;42.620;23.316;2023-04-25T14:10:35;1.50;;;0.80;;
10715;SDS011;5409;42.620;23.316;2023-04-25T14:13:02;0.88;;;0.80;;
10715;SDS011;5409;42.620;23.316;2023-04-25T14:15:30;1.02;;;0.70;;
10715;SDS011;5409;42.620;23.316;2023-04-25T14:17:57;0.65;;;0.65;;
10715;SDS011;5409;42.620;23.316;2023-04-25T14:20:24;0.45;;;0.30;;
10715;SDS011;5409;42.620;23.316;2023-04-25T14:22:51;0.40;;;0.40;;
10715;SDS011;5409;42.620;23.316;2023-04-25T14:25:19;1.75;;;0.50;;
10715;SDS011;5409;42.620;23.316;2023-04-25T14:27:47;1.40;;;1.10;;
10715;SDS011;5409;42.620;23.316;2023-04-25T14:30:15;0.85;;;0.77;;
10715;SDS011;5409;42.620;23.316;2023-04-25T14:32:42;1.88;;;1.42;;
10715;SDS011;5409;42.620;23.316;2023-04-25T14:35:09;2.28;;;1.40;;
10715;SDS011;5409;42.620;23.316;2023-04-25T14:37:36;3.00;;;2.30;;
10715;SDS011;5409;42.620;23.316;2023-04-25T14:40:03;3.47;;;1.27;;
10715;SDS011;5409;42.620;23.316;2023-04-25T14:42:32;1.50;;;1.40;;
10715;SDS011;5409;42.620;23.316;2023-04-25T14:45:00;1.30;;;1.00;;
10715;SDS011;5409;42.620;23.316;2023-04-25T14:47:27;1.85;;;1.10;;
10715;SDS011;5409;42.620;23.316;2023-04-25T14:49:54;2.33;;;0.90;;